sensor_id;sensor_type;location;lat;lon;timestamp;pressure;altitude;pressure_sealevel;temperature;humidity
42705;BME280;28342;42.594;23.414;2023-05-03T00:00:31;94851.78;;;12.47;46.73
42705;BME280;28342;42.594;23.414;2023-05-03T00:02:57;94874.03;;;12.42;46.28
42705;BME280;28342;42.594;23.414;2023-05-03T00:05:24;94868.03;;;12.28;45.96
42705;BME280;28342;42.594;23.414;2023-05-03T00:07:50;94871.59;;;12.23;46.85
42705;BME280;28342;42.594;23.414;2023-05-03T00:10:16;94869.06;;;12.18;47.02
42705;BME280;28342;42.594;23.414;2023-05-03T00:12:42;94869.47;;;12.43;47.26
42705;BME280;28342;42.594;23.414;2023-05-03T00:15:09;94875.44;;;12.48;47.35
42705;BME280;28342;42.594;23.414;2023-05-03T00:17:37;94870.69;;;12.37;46.75
42705;BME280;28342;42.594;23.414;2023-05-03T00:20:03;94882.59;;;12.31;47.10
42705;BME280;28342;42.594;23.414;2023-05-03T00:22:29;94880.06;;;12.25;46.54
42705;BME280;28342;42.594;23.414;2023-05-03T00:24:55;94886.38;;;12.07;46.55
42705;BME280;28342;42.594;23.414;2023-05-03T00:27:21;94886.47;;;11.85;47.23
42705;BME280;28342;42.594;23.414;2023-05-03T00:29:49;94883.53;;;11.95;46.24
42705;BME280;28342;42.594;23.414;2023-05-03T00:32:15;94887.56;;;11.92;46.45
42705;BME280;28342;42.594;23.414;2023-05-03T00:34:41;94877.72;;;11.93;46.34
42705;BME280;28342;42.594;23.414;2023-05-03T00:37:06;94892.72;;;11.89;46.75
42705;BME280;28342;42.594;23.414;2023-05-03T00:39:32;94875.25;;;11.96;46.88
42705;BME280;28342;42.594;23.414;2023-05-03T00:41:58;94872.53;;;11.88;47.43
42705;BME280;28342;42.594;23.414;2023-05-03T00:44:24;94876.78;;;11.89;47.68
42705;BME280;28342;42.594;23.414;2023-05-03T00:46:50;94876.50;;;11.99;48.20
42705;BME280;28342;42.594;23.414;2023-05-03T00:49:16;94867.44;;;12.00;46.22
42705;BME280;28342;42.594;23.414;2023-05-03T00:51:42;94866.22;;;12.06;47.41
42705;BME280;28342;42.594;23.414;2023-05-03T00:54:08;94874.16;;;11.98;47.88
42705;BME280;28342;42.594;23.414;2023-05-03T00:56:34;94868.47;;;11.82;46.56
42705;BME280;28342;42.594;23.414;2023-05-03T00:59:00;94869.63;;;11.98;47.72
42705;BME280;28342;42.594;23.414;2023-05-03T01:01:26;94870.41;;;11.99;46.95
42705;BME280;28342;42.594;23.414;2023-05-03T01:03:53;94853.31;;;11.82;47.09
42705;BME280;28342;42.594;23.414;2023-05-03T01:09:13;94864.03;;;12.08;48.22
42705;BME280;28342;42.594;23.414;2023-05-03T01:11:50;94847.59;;;12.06;47.86
42705;BME280;28342;42.594;23.414;2023-05-03T01:14:30;94842.75;;;12.08;47.15
42705;BME280;28342;42.594;23.414;2023-05-03T01:17:03;94837.31;;;12.22;47.27
42705;BME280;28342;42.594;23.414;2023-05-03T01:19:33;94839.97;;;12.13;46.14
42705;BME280;28342;42.594;23.414;2023-05-03T01:25:00;94835.53;;;12.00;46.91
42705;BME280;28342;42.594;23.414;2023-05-03T01:27:28;94838.69;;;12.02;47.65
42705;BME280;28342;42.594;23.414;2023-05-03T01:29:55;94828.31;;;11.92;47.41
42705;BME280;28342;42.594;23.414;2023-05-03T01:33:12;94835.06;;;11.98;46.95
42705;BME280;28342;42.594;23.414;2023-05-03T01:35:17;94831.09;;;11.87;47.14
42705;BME280;28342;42.594;23.414;2023-05-03T01:37:45;94836.88;;;11.80;47.75
42705;BME280;28342;42.594;23.414;2023-05-03T01:40:12;94832.56;;;11.71;47.48
42705;BME280;28342;42.594;23.414;2023-05-03T01:42:41;94817.50;;;11.57;48.26
42705;BME280;28342;42.594;23.414;2023-05-03T01:45:08;94812.81;;;11.54;47.39
42705;BME280;28342;42.594;23.414;2023-05-03T01:47:34;94793.72;;;11.52;48.97
42705;BME280;28342;42.594;23.414;2023-05-03T01:49:59;94824.63;;;11.48;47.67
42705;BME280;28342;42.594;23.414;2023-05-03T01:52:24;94806.91;;;11.35;48.33
42705;BME280;28342;42.594;23.414;2023-05-03T01:54:50;94816.09;;;11.60;48.32
42705;BME280;28342;42.594;23.414;2023-05-03T01:57:15;94814.63;;;11.45;49.91
42705;BME280;28342;42.594;23.414;2023-05-03T01:59:41;94813.41;;;11.51;48.68
42705;BME280;28342;42.594;23.414;2023-05-03T02:02:06;94811.09;;;11.58;49.81
42705;BME280;28342;42.594;23.414;2023-05-03T02:04:32;94795.47;;;11.57;48.75
42705;BME280;28342;42.594;23.414;2023-05-03T02:06:57;94785.63;;;11.57;48.53
42705;BME280;28342;42.594;23.414;2023-05-03T02:09:23;94792.81;;;11.57;48.72
42705;BME280;28342;42.594;23.414;2023-05-03T02:11:49;94778.75;;;11.56;48.73
42705;BME280;28342;42.594;23.414;2023-05-03T02:14:14;94784.34;;;11.55;48.30
42705;BME280;28342;42.594;23.414;2023-05-03T02:16:39;94786.50;;;11.44;48.50
42705;BME280;28342;42.594;23.414;2023-05-03T02:19:05;94789.41;;;11.34;48.39
42705;BME280;28342;42.594;23.414;2023-05-03T02:21:33;94770.59;;;11.22;49.28
42705;BME280;28342;42.594;23.414;2023-05-03T02:23:58;94768.97;;;11.34;49.79
42705;BME280;28342;42.594;23.414;2023-05-03T02:26:24;94762.47;;;11.18;49.04
42705;BME280;28342;42.594;23.414;2023-05-03T02:28:50;94767.50;;;11.28;50.39
42705;BME280;28342;42.594;23.414;2023-05-03T02:31:15;94753.13;;;11.29;51.12
42705;BME280;28342;42.594;23.414;2023-05-03T02:33:41;94778.81;;;11.12;49.51
42705;BME280;28342;42.594;23.414;2023-05-03T02:36:06;94771.69;;;11.21;50.53
42705;BME280;28342;42.594;23.414;2023-05-03T02:38:32;94771.22;;;10.96;50.75
42705;BME280;28342;42.594;23.414;2023-05-03T02:40:57;94774.28;;;11.12;51.47
42705;BME280;28342;42.594;23.414;2023-05-03T02:43:24;94788.16;;;11.09;51.14
42705;BME280;28342;42.594;23.414;2023-05-03T02:45:49;94791.50;;;10.92;51.07
42705;BME280;28342;42.594;23.414;2023-05-03T02:48:15;94767.19;;;10.76;50.78
42705;BME280;28342;42.594;23.414;2023-05-03T02:50:41;94777.84;;;10.85;50.77
42705;BME280;28342;42.594;23.414;2023-05-03T02:53:07;94780.50;;;10.85;51.13
42705;BME280;28342;42.594;23.414;2023-05-03T02:55:33;94794.97;;;11.01;51.38
42705;BME280;28342;42.594;23.414;2023-05-03T02:57:58;94787.50;;;11.03;50.92
42705;BME280;28342;42.594;23.414;2023-05-03T03:00:24;94753.00;;;10.81;50.93
42705;BME280;28342;42.594;23.414;2023-05-03T03:02:49;94777.16;;;11.02;52.32
42705;BME280;28342;42.594;23.414;2023-05-03T03:05:15;94772.59;;;10.94;51.49
42705;BME280;28342;42.594;23.414;2023-05-03T03:07:41;94785.09;;;10.93;51.67
42705;BME280;28342;42.594;23.414;2023-05-03T03:10:07;94767.34;;;10.80;51.93
42705;BME280;28342;42.594;23.414;2023-05-03T03:12:34;94782.44;;;10.93;51.83
42705;BME280;28342;42.594;23.414;2023-05-03T03:15:00;94779.31;;;10.91;51.80
42705;BME280;28342;42.594;23.414;2023-05-03T03:17:26;94779.66;;;10.76;53.15
42705;BME280;28342;42.594;23.414;2023-05-03T03:19:51;94763.97;;;10.66;51.71
42705;BME280;28342;42.594;23.414;2023-05-03T03:22:17;94750.22;;;10.64;51.48
42705;BME280;28342;42.594;23.414;2023-05-03T03:24:42;94750.72;;;10.66;52.09
42705;BME280;28342;42.594;23.414;2023-05-03T03:27:09;94774.97;;;10.73;51.65
42705;BME280;28342;42.594;23.414;2023-05-03T03:29:34;94779.38;;;10.77;51.59
42705;BME280;28342;42.594;23.414;2023-05-03T03:32:00;94796.66;;;10.75;51.53
42705;BME280;28342;42.594;23.414;2023-05-03T03:34:25;94798.84;;;10.73;51.69
42705;BME280;28342;42.594;23.414;2023-05-03T03:36:51;94799.03;;;10.76;52.08
42705;BME280;28342;42.594;23.414;2023-05-03T03:39:16;94810.63;;;10.67;54.18
42705;BME280;28342;42.594;23.414;2023-05-03T03:41:42;94795.19;;;10.69;52.01
42705;BME280;28342;42.594;23.414;2023-05-03T03:44:07;94814.50;;;10.83;52.13
42705;BME280;28342;42.594;23.414;2023-05-03T03:46:33;94814.56;;;10.69;51.76
42705;BME280;28342;42.594;23.414;2023-05-03T03:48:59;94815.94;;;10.67;51.56
42705;BME280;28342;42.594;23.414;2023-05-03T03:51:24;94816.38;;;10.60;52.00
42705;BME280;28342;42.594;23.414;2023-05-03T03:53:51;94815.47;;;10.65;51.71
42705;BME280;28342;42.594;23.414;2023-05-03T03:56:16;94819.28;;;10.72;51.52
42705;BME280;28342;42.594;23.414;2023-05-03T03:58:42;94818.72;;;10.62;51.76
42705;BME280;28342;42.594;23.414;2023-05-03T04:01:07;94820.28;;;10.63;51.94
42705;BME280;28342;42.594;23.414;2023-05-03T04:03:33;94828.50;;;10.75;51.98
42705;BME280;28342;42.594;23.414;2023-05-03T04:05:58;94849.41;;;10.90;51.29
42705;BME280;28342;42.594;23.414;2023-05-03T04:08:24;94824.53;;;10.86;51.33
42705;BME280;28342;42.594;23.414;2023-05-03T04:10:50;94852.63;;;10.87;51.61
42705;BME280;28342;42.594;23.414;2023-05-03T04:13:15;94826.56;;;10.67;51.30
42705;BME280;28342;42.594;23.414;2023-05-03T04:15:40;94854.75;;;10.99;52.88
42705;BME280;28342;42.594;23.414;2023-05-03T04:18:06;94851.84;;;10.87;51.86
42705;BME280;28342;42.594;23.414;2023-05-03T04:20:34;94844.41;;;10.89;51.80
42705;BME280;28342;42.594;23.414;2023-05-03T04:23:00;94863.50;;;10.99;52.03
42705;BME280;28342;42.594;23.414;2023-05-03T04:25:25;94859.72;;;10.92;52.34
42705;BME280;28342;42.594;23.414;2023-05-03T04:27:52;94865.41;;;10.85;51.28
42705;BME280;28342;42.594;23.414;2023-05-03T04:30:17;94862.06;;;10.93;52.92
42705;BME280;28342;42.594;23.414;2023-05-03T04:32:44;94875.06;;;10.81;51.38
42705;BME280;28342;42.594;23.414;2023-05-03T04:35:09;94885.81;;;10.98;51.32
42705;BME280;28342;42.594;23.414;2023-05-03T04:37:37;94881.47;;;11.02;51.92
42705;BME280;28342;42.594;23.414;2023-05-03T04:40:03;94880.53;;;10.98;51.80
42705;BME280;28342;42.594;23.414;2023-05-03T04:42:32;94880.38;;;10.81;52.01
42705;BME280;28342;42.594;23.414;2023-05-03T04:44:58;94889.22;;;10.90;52.11
42705;BME280;28342;42.594;23.414;2023-05-03T04:47:23;94874.78;;;10.69;53.46
42705;BME280;28342;42.594;23.414;2023-05-03T04:49:50;94887.28;;;10.68;53.23
42705;BME280;28342;42.594;23.414;2023-05-03T04:52:15;94909.97;;;10.74;55.01
42705;BME280;28342;42.594;23.414;2023-05-03T04:54:41;94906.44;;;10.65;57.18
42705;BME280;28342;42.594;23.414;2023-05-03T04:57:06;94906.84;;;10.59;57.30
42705;BME280;28342;42.594;23.414;2023-05-03T04:59:34;94904.56;;;10.66;59.22
42705;BME280;28342;42.594;23.414;2023-05-03T05:02:00;94899.66;;;10.73;59.46
42705;BME280;28342;42.594;23.414;2023-05-03T05:04:25;94915.00;;;10.48;59.29
42705;BME280;28342;42.594;23.414;2023-05-03T05:06:52;94914.63;;;10.41;58.10
42705;BME280;28342;42.594;23.414;2023-05-03T05:09:23;94919.34;;;10.44;63.31
42705;BME280;28342;42.594;23.414;2023-05-03T05:11:49;94913.81;;;10.41;61.16
42705;BME280;28342;42.594;23.414;2023-05-03T05:14:14;94922.06;;;10.53;58.77
42705;BME280;28342;42.594;23.414;2023-05-03T05:16:40;94921.28;;;10.53;57.99
42705;BME280;28342;42.594;23.414;2023-05-03T05:19:05;94904.41;;;10.48;61.52
42705;BME280;28342;42.594;23.414;2023-05-03T05:21:31;94925.81;;;10.66;59.30
42705;BME280;28342;42.594;23.414;2023-05-03T05:23:56;94921.38;;;10.75;61.25
42705;BME280;28342;42.594;23.414;2023-05-03T05:26:22;94927.16;;;10.77;58.34
42705;BME280;28342;42.594;23.414;2023-05-03T05:28:47;94930.09;;;10.89;56.92
42705;BME280;28342;42.594;23.414;2023-05-03T05:31:13;94923.22;;;10.88;60.71
42705;BME280;28342;42.594;23.414;2023-05-03T05:33:39;94915.94;;;10.80;57.92
42705;BME280;28342;42.594;23.414;2023-05-03T05:36:05;94921.69;;;10.73;58.53
42705;BME280;28342;42.594;23.414;2023-05-03T05:38:30;94928.25;;;10.76;58.31
42705;BME280;28342;42.594;23.414;2023-05-03T05:40:56;94929.34;;;10.75;58.08
42705;BME280;28342;42.594;23.414;2023-05-03T05:43:21;94925.97;;;10.83;58.37
42705;BME280;28342;42.594;23.414;2023-05-03T05:45:47;94925.97;;;10.83;57.34
42705;BME280;28342;42.594;23.414;2023-05-03T05:48:13;94924.03;;;10.75;57.27
42705;BME280;28342;42.594;23.414;2023-05-03T05:50:38;94932.09;;;10.56;57.59
42705;BME280;28342;42.594;23.414;2023-05-03T05:53:03;94925.03;;;10.52;56.95
42705;BME280;28342;42.594;23.414;2023-05-03T05:55:29;94911.28;;;10.50;59.71
42705;BME280;28342;42.594;23.414;2023-05-03T05:57:55;94908.91;;;10.62;56.89
42705;BME280;28342;42.594;23.414;2023-05-03T06:00:20;94913.91;;;10.63;57.68
42705;BME280;28342;42.594;23.414;2023-05-03T06:02:46;94926.19;;;10.73;58.60
42705;BME280;28342;42.594;23.414;2023-05-03T06:05:15;94929.22;;;10.80;56.74
42705;BME280;28342;42.594;23.414;2023-05-03T06:07:40;94921.75;;;10.82;58.42
42705;BME280;28342;42.594;23.414;2023-05-03T06:10:06;94921.44;;;10.84;57.89
42705;BME280;28342;42.594;23.414;2023-05-03T06:12:32;94908.66;;;10.86;61.29
42705;BME280;28342;42.594;23.414;2023-05-03T06:14:57;94929.47;;;11.06;61.72
42705;BME280;28342;42.594;23.414;2023-05-03T06:17:23;94935.97;;;11.00;58.37
42705;BME280;28342;42.594;23.414;2023-05-03T06:19:50;94910.53;;;10.85;56.69
42705;BME280;28342;42.594;23.414;2023-05-03T06:22:15;94921.50;;;11.06;57.08
42705;BME280;28342;42.594;23.414;2023-05-03T06:24:40;94906.28;;;10.98;58.14
42705;BME280;28342;42.594;23.414;2023-05-03T06:27:06;94904.78;;;11.05;57.71
42705;BME280;28342;42.594;23.414;2023-05-03T06:29:31;94934.97;;;11.10;58.20
42705;BME280;28342;42.594;23.414;2023-05-03T06:31:57;94923.53;;;11.23;56.92
42705;BME280;28342;42.594;23.414;2023-05-03T06:34:22;94918.22;;;11.23;58.20
42705;BME280;28342;42.594;23.414;2023-05-03T06:36:48;94909.41;;;11.36;56.93
42705;BME280;28342;42.594;23.414;2023-05-03T06:39:14;94918.56;;;11.30;58.35
42705;BME280;28342;42.594;23.414;2023-05-03T06:41:40;94911.28;;;11.35;56.51
42705;BME280;28342;42.594;23.414;2023-05-03T06:44:05;94903.13;;;11.54;58.41
42705;BME280;28342;42.594;23.414;2023-05-03T06:46:34;94904.69;;;11.55;57.79
42705;BME280;28342;42.594;23.414;2023-05-03T06:48:59;94890.91;;;11.31;57.17
42705;BME280;28342;42.594;23.414;2023-05-03T06:51:25;94912.78;;;11.50;57.78
42705;BME280;28342;42.594;23.414;2023-05-03T06:53:56;94893.94;;;11.38;58.86
42705;BME280;28342;42.594;23.414;2023-05-03T06:56:24;94892.13;;;11.47;57.63
42705;BME280;28342;42.594;23.414;2023-05-03T06:58:50;94876.97;;;11.48;58.90
42705;BME280;28342;42.594;23.414;2023-05-03T07:01:16;94892.19;;;11.56;57.09
42705;BME280;28342;42.594;23.414;2023-05-03T07:03:43;94900.41;;;11.46;58.12
42705;BME280;28342;42.594;23.414;2023-05-03T07:06:08;94902.94;;;11.51;57.61
42705;BME280;28342;42.594;23.414;2023-05-03T07:08:34;94892.38;;;11.37;58.82
42705;BME280;28342;42.594;23.414;2023-05-03T07:10:59;94910.06;;;11.42;58.98
42705;BME280;28342;42.594;23.414;2023-05-03T07:13:25;94898.44;;;11.51;58.56
42705;BME280;28342;42.594;23.414;2023-05-03T07:15:50;94885.63;;;11.53;58.03
42705;BME280;28342;42.594;23.414;2023-05-03T07:18:16;94886.66;;;11.75;59.08
42705;BME280;28342;42.594;23.414;2023-05-03T07:20:41;94880.19;;;11.81;59.04
42705;BME280;28342;42.594;23.414;2023-05-03T07:23:06;94892.31;;;11.95;59.10
42705;BME280;28342;42.594;23.414;2023-05-03T07:25:32;94871.72;;;11.79;57.44
42705;BME280;28342;42.594;23.414;2023-05-03T07:27:58;94892.47;;;11.99;59.09
42705;BME280;28342;42.594;23.414;2023-05-03T07:30:23;94870.50;;;11.62;59.43
42705;BME280;28342;42.594;23.414;2023-05-03T07:32:49;94874.72;;;11.63;61.04
42705;BME280;28342;42.594;23.414;2023-05-03T07:35:15;94879.19;;;11.99;60.12
42705;BME280;28342;42.594;23.414;2023-05-03T07:37:41;94872.09;;;11.94;59.57
42705;BME280;28342;42.594;23.414;2023-05-03T07:40:07;94881.06;;;11.99;59.06
42705;BME280;28342;42.594;23.414;2023-05-03T07:42:34;94884.34;;;12.04;60.68
42705;BME280;28342;42.594;23.414;2023-05-03T07:44:59;94886.59;;;12.19;59.18
42705;BME280;28342;42.594;23.414;2023-05-03T07:47:25;94870.47;;;12.16;61.15
42705;BME280;28342;42.594;23.414;2023-05-03T07:49:51;94867.56;;;12.26;58.41
42705;BME280;28342;42.594;23.414;2023-05-03T07:52:17;94883.13;;;12.10;59.23
42705;BME280;28342;42.594;23.414;2023-05-03T07:54:42;94872.47;;;12.02;61.01
42705;BME280;28342;42.594;23.414;2023-05-03T07:57:10;94888.25;;;11.98;60.16
42705;BME280;28342;42.594;23.414;2023-05-03T07:59:36;94875.97;;;12.19;61.34
42705;BME280;28342;42.594;23.414;2023-05-03T08:02:03;94893.59;;;12.55;60.68
42705;BME280;28342;42.594;23.414;2023-05-03T08:04:28;94880.81;;;12.83;60.26
42705;BME280;28342;42.594;23.414;2023-05-03T08:06:54;94879.28;;;12.91;58.29
42705;BME280;28342;42.594;23.414;2023-05-03T08:09:19;94876.91;;;13.15;60.66
42705;BME280;28342;42.594;23.414;2023-05-03T08:11:45;94873.00;;;13.56;58.40
42705;BME280;28342;42.594;23.414;2023-05-03T08:14:10;94870.56;;;13.89;56.66
42705;BME280;28342;42.594;23.414;2023-05-03T08:16:36;94861.28;;;14.03;56.29
42705;BME280;28342;42.594;23.414;2023-05-03T08:19:01;94862.81;;;14.13;54.87
42705;BME280;28342;42.594;23.414;2023-05-03T08:21:27;94869.81;;;14.26;55.69
42705;BME280;28342;42.594;23.414;2023-05-03T08:23:52;94865.22;;;14.44;54.57
42705;BME280;28342;42.594;23.414;2023-05-03T08:26:18;94867.31;;;14.59;54.11
42705;BME280;28342;42.594;23.414;2023-05-03T08:28:46;94860.69;;;14.65;55.29
42705;BME280;28342;42.594;23.414;2023-05-03T08:31:11;94862.78;;;15.22;54.96
42705;BME280;28342;42.594;23.414;2023-05-03T08:33:37;94866.63;;;15.88;53.20
42705;BME280;28342;42.594;23.414;2023-05-03T08:36:02;94842.34;;;16.17;50.83
42705;BME280;28342;42.594;23.414;2023-05-03T08:38:28;94860.34;;;16.41;49.61
42705;BME280;28342;42.594;23.414;2023-05-03T08:40:54;94851.06;;;16.87;50.82
42705;BME280;28342;42.594;23.414;2023-05-03T08:43:22;94847.16;;;17.25;47.30
42705;BME280;28342;42.594;23.414;2023-05-03T08:45:51;94860.94;;;17.39;49.36
42705;BME280;28342;42.594;23.414;2023-05-03T08:48:17;94848.09;;;17.05;48.08
42705;BME280;28342;42.594;23.414;2023-05-03T08:50:43;94856.63;;;16.82;48.00
42705;BME280;28342;42.594;23.414;2023-05-03T08:53:09;94869.59;;;16.68;48.92
42705;BME280;28342;42.594;23.414;2023-05-03T08:55:35;94862.22;;;16.53;49.67
42705;BME280;28342;42.594;23.414;2023-05-03T08:58:02;94871.69;;;16.62;49.93
42705;BME280;28342;42.594;23.414;2023-05-03T09:00:34;94865.34;;;16.91;47.98
42705;BME280;28342;42.594;23.414;2023-05-03T09:03:00;94873.59;;;16.86;48.20
42705;BME280;28342;42.594;23.414;2023-05-03T09:05:32;94879.84;;;16.78;48.31
42705;BME280;28342;42.594;23.414;2023-05-03T09:08:05;94874.03;;;17.00;49.58
42705;BME280;28342;42.594;23.414;2023-05-03T09:10:33;94851.16;;;17.31;49.71
42705;BME280;28342;42.594;23.414;2023-05-03T09:13:01;94850.19;;;17.51;48.17
42705;BME280;28342;42.594;23.414;2023-05-03T09:15:28;94863.28;;;17.97;46.99
42705;BME280;28342;42.594;23.414;2023-05-03T09:20:39;94860.97;;;18.27;45.20
42705;BME280;28342;42.594;23.414;2023-05-03T09:23:06;94859.56;;;18.17;44.39
42705;BME280;28342;42.594;23.414;2023-05-03T09:28:07;94852.97;;;17.83;44.71
42705;BME280;28342;42.594;23.414;2023-05-03T09:30:33;94853.31;;;17.81;45.60
42705;BME280;28342;42.594;23.414;2023-05-03T09:33:04;94840.25;;;18.11;46.74
42705;BME280;28342;42.594;23.414;2023-05-03T09:35:30;94835.25;;;18.26;45.93
42705;BME280;28342;42.594;23.414;2023-05-03T09:37:56;94830.09;;;18.52;45.92
42705;BME280;28342;42.594;23.414;2023-05-03T09:40:22;94817.63;;;18.95;43.93
42705;BME280;28342;42.594;23.414;2023-05-03T09:43:07;94813.66;;;19.27;46.71
42705;BME280;28342;42.594;23.414;2023-05-03T09:45:34;94825.31;;;19.31;44.01
42705;BME280;28342;42.594;23.414;2023-05-03T09:48:04;94821.31;;;19.25;43.88
42705;BME280;28342;42.594;23.414;2023-05-03T09:50:34;94824.16;;;19.52;44.16
42705;BME280;28342;42.594;23.414;2023-05-03T09:53:06;94805.44;;;20.01;43.48
42705;BME280;28342;42.594;23.414;2023-05-03T09:55:35;94807.06;;;20.28;41.69
42705;BME280;28342;42.594;23.414;2023-05-03T09:58:02;94804.13;;;20.90;41.00
42705;BME280;28342;42.594;23.414;2023-05-03T10:00:38;94810.00;;;21.26;40.95
42705;BME280;28342;42.594;23.414;2023-05-03T10:03:09;94820.53;;;21.08;39.52
42705;BME280;28342;42.594;23.414;2023-05-03T10:05:42;94822.28;;;20.67;40.76
42705;BME280;28342;42.594;23.414;2023-05-03T10:08:09;94826.09;;;20.66;41.55
42705;BME280;28342;42.594;23.414;2023-05-03T10:10:37;94805.84;;;20.49;42.23
42705;BME280;28342;42.594;23.414;2023-05-03T10:13:04;94807.81;;;20.52;40.24
42705;BME280;28342;42.594;23.414;2023-05-03T10:15:30;94818.50;;;20.71;41.35
42705;BME280;28342;42.594;23.414;2023-05-03T10:17:57;94811.25;;;20.75;40.99
42705;BME280;28342;42.594;23.414;2023-05-03T10:20:37;94801.72;;;20.55;42.15
42705;BME280;28342;42.594;23.414;2023-05-03T10:25:30;94778.53;;;19.78;41.60
42705;BME280;28342;42.594;23.414;2023-05-03T10:28:03;94792.88;;;20.09;44.09
42705;BME280;28342;42.594;23.414;2023-05-03T10:30:33;94785.09;;;20.26;42.74
42705;BME280;28342;42.594;23.414;2023-05-03T10:35:52;94794.47;;;19.90;42.06
42705;BME280;28342;42.594;23.414;2023-05-03T10:38:25;94776.09;;;19.31;44.06
42705;BME280;28342;42.594;23.414;2023-05-03T10:40:51;94783.06;;;19.74;43.39
42705;BME280;28342;42.594;23.414;2023-05-03T10:46:04;94792.75;;;19.17;45.09
42705;BME280;28342;42.594;23.414;2023-05-03T10:48:31;94797.34;;;19.17;44.46
42705;BME280;28342;42.594;23.414;2023-05-03T10:50:58;94806.19;;;19.56;46.25
42705;BME280;28342;42.594;23.414;2023-05-03T10:53:42;94808.25;;;19.85;44.24
42705;BME280;28342;42.594;23.414;2023-05-03T10:56:09;94806.59;;;19.38;44.01
42705;BME280;28342;42.594;23.414;2023-05-03T10:58:46;94808.28;;;19.27;45.43
42705;BME280;28342;42.594;23.414;2023-05-03T11:01:14;94804.91;;;19.50;44.93
42705;BME280;28342;42.594;23.414;2023-05-03T11:03:45;94790.44;;;19.58;46.16
42705;BME280;28342;42.594;23.414;2023-05-03T11:06:32;94783.09;;;19.35;43.82
42705;BME280;28342;42.594;23.414;2023-05-03T11:08:59;94776.22;;;19.38;44.02
42705;BME280;28342;42.594;23.414;2023-05-03T11:11:25;94789.91;;;19.10;46.40
42705;BME280;28342;42.594;23.414;2023-05-03T11:13:51;94800.94;;;19.05;45.32
42705;BME280;28342;42.594;23.414;2023-05-03T11:16:16;94799.94;;;18.94;47.54
42705;BME280;28342;42.594;23.414;2023-05-03T11:18:42;94781.84;;;18.91;46.68
42705;BME280;28342;42.594;23.414;2023-05-03T11:21:09;94778.72;;;18.89;49.29
42705;BME280;28342;42.594;23.414;2023-05-03T11:23:37;94771.41;;;19.28;47.41
42705;BME280;28342;42.594;23.414;2023-05-03T11:26:05;94762.69;;;19.54;47.95
42705;BME280;28342;42.594;23.414;2023-05-03T11:28:30;94746.34;;;19.62;45.56
42705;BME280;28342;42.594;23.414;2023-05-03T11:30:56;94756.94;;;19.32;44.97
42705;BME280;28342;42.594;23.414;2023-05-03T11:33:21;94754.34;;;19.39;46.89
42705;BME280;28342;42.594;23.414;2023-05-03T11:35:47;94749.16;;;19.92;46.93
42705;BME280;28342;42.594;23.414;2023-05-03T11:38:12;94777.66;;;20.20;43.33
42705;BME280;28342;42.594;23.414;2023-05-03T11:40:37;94765.31;;;20.19;45.03
42705;BME280;28342;42.594;23.414;2023-05-03T11:43:04;94758.72;;;20.39;44.77
42705;BME280;28342;42.594;23.414;2023-05-03T11:45:39;94764.63;;;20.22;42.87
42705;BME280;28342;42.594;23.414;2023-05-03T11:48:05;94762.00;;;20.03;46.64
42705;BME280;28342;42.594;23.414;2023-05-03T11:50:53;94759.34;;;20.29;43.07
42705;BME280;28342;42.594;23.414;2023-05-03T11:53:22;94771.59;;;20.49;43.86
42705;BME280;28342;42.594;23.414;2023-05-03T11:55:50;94757.72;;;20.77;43.48
42705;BME280;28342;42.594;23.414;2023-05-03T11:58:22;94753.25;;;20.88;45.42
42705;BME280;28342;42.594;23.414;2023-05-03T12:00:50;94747.88;;;21.22;45.01
42705;BME280;28342;42.594;23.414;2023-05-03T12:03:19;94735.75;;;21.05;41.83
42705;BME280;28342;42.594;23.414;2023-05-03T12:05:45;94763.13;;;20.77;42.11
42705;BME280;28342;42.594;23.414;2023-05-03T12:08:11;94751.38;;;20.63;41.47
42705;BME280;28342;42.594;23.414;2023-05-03T12:10:37;94746.38;;;20.65;44.06
42705;BME280;28342;42.594;23.414;2023-05-03T12:13:02;94743.75;;;20.68;43.79
42705;BME280;28342;42.594;23.414;2023-05-03T12:15:29;94745.41;;;20.23;42.67
42705;BME280;28342;42.594;23.414;2023-05-03T12:17:56;94738.81;;;19.94;43.59
42705;BME280;28342;42.594;23.414;2023-05-03T12:20:23;94754.22;;;19.13;45.07
42705;BME280;28342;42.594;23.414;2023-05-03T12:22:54;94735.84;;;19.15;47.24
42705;BME280;28342;42.594;23.414;2023-05-03T12:25:20;94740.19;;;19.00;46.76
42705;BME280;28342;42.594;23.414;2023-05-03T12:27:48;94742.91;;;18.49;46.89
42705;BME280;28342;42.594;23.414;2023-05-03T12:30:14;94758.34;;;18.52;47.29
42705;BME280;28342;42.594;23.414;2023-05-03T12:32:39;94758.31;;;18.17;48.04
42705;BME280;28342;42.594;23.414;2023-05-03T12:35:06;94745.00;;;17.74;49.47
42705;BME280;28342;42.594;23.414;2023-05-03T12:37:33;94737.03;;;17.61;49.53
42705;BME280;28342;42.594;23.414;2023-05-03T12:39:59;94742.69;;;17.44;49.63
42705;BME280;28342;42.594;23.414;2023-05-03T12:42:24;94755.75;;;17.46;51.40
42705;BME280;28342;42.594;23.414;2023-05-03T12:44:50;94759.38;;;17.22;50.72
42705;BME280;28342;42.594;23.414;2023-05-03T12:47:15;94761.78;;;16.71;53.27
42705;BME280;28342;42.594;23.414;2023-05-03T12:49:41;94754.38;;;16.80;54.23
42705;BME280;28342;42.594;23.414;2023-05-03T12:52:06;94734.38;;;16.37;56.92
42705;BME280;28342;42.594;23.414;2023-05-03T12:54:35;94755.22;;;16.44;57.68
42705;BME280;28342;42.594;23.414;2023-05-03T12:57:00;94734.50;;;16.41;60.17
42705;BME280;28342;42.594;23.414;2023-05-03T12:59:28;94742.44;;;16.25;61.34
42705;BME280;28342;42.594;23.414;2023-05-03T13:01:55;94724.75;;;16.49;60.69
42705;BME280;28342;42.594;23.414;2023-05-03T13:04:21;94733.47;;;16.46;60.41
42705;BME280;28342;42.594;23.414;2023-05-03T13:06:46;94737.50;;;16.39;60.22